createdAt,value
2018-04-10T00:02:17.458Z,97057.09
2018-04-10T00:04:44.929Z,97052.52
2018-04-10T00:07:12.404Z,97049.38
2018-04-10T00:09:39.941Z,97049.17
2018-04-10T00:12:07.469Z,97056.05
2018-04-10T00:14:34.974Z,97058.30
2018-04-10T00:17:02.472Z,97064.98
2018-04-10T00:19:29.942Z,97061.20
2018-04-10T00:21:57.403Z,97060.38
2018-04-10T00:24:24.927Z,97060.48
2018-04-10T00:26:52.421Z,97057.57
2018-04-10T00:29:19.930Z,97064.02
2018-04-10T00:31:47.402Z,97064.90
2018-04-10T00:34:14.882Z,97069.38
2018-04-10T00:36:42.357Z,97067.23
2018-04-10T00:39:09.945Z,97062.01
2018-04-10T00:41:37.453Z,97076.00
2018-04-10T00:44:05.099Z,97072.38
2018-04-10T00:46:32.594Z,97071.80
2018-04-10T00:49:00.158Z,97070.30
2018-04-10T00:51:27.610Z,97071.71
2018-04-10T00:53:55.048Z,97066.45
2018-04-10T00:56:22.518Z,97071.08
2018-04-10T00:58:50.017Z,97072.27
2018-04-10T01:01:17.567Z,97075.39
2018-04-10T01:03:45.021Z,97075.20
2018-04-10T01:06:12.483Z,97073.36
2018-04-10T01:08:39.960Z,97073.89
2018-04-10T01:11:07.488Z,97069.52
2018-04-10T01:13:35.011Z,97074.45
2018-04-10T01:16:02.475Z,97072.83
2018-04-10T01:18:30.069Z,97070.98
2018-04-10T01:20:57.533Z,97074.28
2018-04-10T01:23:25.019Z,97077.78
2018-04-10T01:25:52.477Z,97074.27
2018-04-10T01:28:20.000Z,97078.05
2018-04-10T01:30:47.456Z,97078.54
2018-04-10T01:33:14.969Z,97074.14
2018-04-10T01:35:42.525Z,97077.02
2018-04-10T01:38:09.999Z,97077.98
2018-04-10T01:40:37.459Z,97082.94
2018-04-10T01:43:04.924Z,97075.41
2018-04-10T01:45:32.387Z,97079.02
2018-04-10T01:47:59.893Z,97074.39
2018-04-10T01:50:27.385Z,97067.40
2018-04-10T01:52:54.886Z,97076.44
2018-04-10T01:55:22.397Z,97081.36
2018-04-10T01:57:49.886Z,97083.11
2018-04-10T02:00:17.386Z,97086.83
2018-04-10T02:02:44.864Z,97084.06
2018-04-10T02:05:12.352Z,97087.02
2018-04-10T02:07:39.996Z,97090.37
2018-04-10T02:10:07.474Z,97089.47
2018-04-10T02:12:34.967Z,97090.73
2018-04-10T02:15:02.448Z,97090.25
2018-04-10T02:17:29.934Z,97085.98
2018-04-10T02:19:57.401Z,97085.81
2018-04-10T02:22:25.089Z,97081.48
2018-04-10T02:24:52.588Z,97080.90
2018-04-10T02:27:20.065Z,97078.25
2018-04-10T02:29:47.535Z,97077.83
2018-04-10T02:32:14.999Z,97081.63
2018-04-10T02:34:42.513Z,97082.82
2018-04-10T02:37:09.981Z,97084.81
2018-04-10T02:39:37.574Z,97082.94
2018-04-10T02:42:05.037Z,97083.44
2018-04-10T02:44:32.514Z,97082.77
2018-04-10T02:46:59.981Z,97079.69
2018-04-10T02:49:27.439Z,97083.20
2018-04-10T02:51:55.158Z,97074.75
2018-04-10T02:54:22.655Z,97077.72
2018-04-10T02:56:50.116Z,97078.30
2018-04-10T02:59:17.570Z,97086.25
2018-04-10T03:01:45.043Z,97081.80
2018-04-10T03:04:12.604Z,97087.11
2018-04-10T03:06:40.100Z,97085.12
2018-04-10T03:09:07.840Z,97084.22
2018-04-10T03:11:35.316Z,97078.15
2018-04-10T03:14:03.051Z,97074.83
2018-04-10T03:16:30.504Z,97079.58
2018-04-10T03:18:58.156Z,97081.08
2018-04-10T03:21:25.772Z,97083.14
2018-04-10T03:23:53.238Z,97075.55
2018-04-10T03:26:20.697Z,97076.34
2018-04-10T03:28:48.156Z,97075.30
2018-04-10T03:31:15.624Z,97074.35
2018-04-10T03:33:43.102Z,97070.73
2018-04-10T03:36:10.620Z,97068.80
2018-04-10T03:38:38.208Z,97065.63
2018-04-10T03:41:05.673Z,97066.58
2018-04-10T03:43:33.896Z,97060.31
2018-04-10T03:46:01.484Z,97060.81
2018-04-10T03:48:29.113Z,97053.14
2018-04-10T03:50:56.666Z,97051.82
2018-04-10T03:53:24.127Z,97053.34
2018-04-10T03:55:51.607Z,97049.67
2018-04-10T03:58:19.069Z,97044.37
2018-04-10T04:00:46.728Z,97034.22
2018-04-10T04:03:14.218Z,97024.53
2018-04-10T04:05:41.764Z,97021.20
2018-04-10T04:08:09.262Z,97012.67
2018-04-10T04:10:37.048Z,97011.82
2018-04-10T04:13:05.342Z,97001.31
2018-04-10T04:15:32.899Z,96996.73
2018-04-10T04:18:00.781Z,96994.20
2018-04-10T04:20:40.864Z,96993.77
2018-04-10T04:23:08.352Z,96985.05
2018-04-10T04:25:35.839Z,96990.77
2018-04-10T04:28:03.339Z,96984.00
2018-04-10T04:30:30.804Z,96987.78
2018-04-10T04:32:58.512Z,96980.52
2018-04-10T04:35:26.021Z,96979.31
2018-04-10T04:37:53.504Z,96982.30
2018-04-10T04:40:21.239Z,96982.81
2018-04-10T04:42:48.723Z,96990.92
2018-04-10T04:45:16.202Z,97001.41
2018-04-10T04:47:43.692Z,97008.48
2018-04-10T04:50:11.163Z,97010.52
2018-04-10T04:52:38.646Z,97017.34
2018-04-10T04:55:06.128Z,97015.79
2018-04-10T04:57:33.693Z,97013.41
2018-04-10T05:00:01.176Z,97018.20
2018-04-10T05:02:28.628Z,97014.56
2018-04-10T05:04:56.103Z,97020.82
2018-04-10T05:07:23.600Z,97025.78
2018-04-10T05:09:51.102Z,97028.61
2018-04-10T05:12:18.637Z,97026.61
2018-04-10T05:14:46.278Z,97022.13
2018-04-10T05:17:13.754Z,97020.94
2018-04-10T05:19:41.232Z,97022.22
2018-04-10T05:22:08.722Z,97014.59
2018-04-10T05:24:36.216Z,97016.88
2018-04-10T05:27:03.696Z,97024.47
2018-04-10T05:29:31.198Z,97026.70
2018-04-10T05:31:58.668Z,97037.94
2018-04-10T05:34:26.154Z,97034.58
2018-04-10T05:36:53.742Z,97025.23
2018-04-10T05:39:21.232Z,97018.42
2018-04-10T05:41:48.779Z,97016.69
2018-04-10T05:44:16.276Z,97020.05
2018-04-10T05:46:43.752Z,97015.06
2018-04-10T05:49:11.285Z,97030.09
2018-04-10T05:51:38.755Z,97030.45
2018-04-10T05:54:06.252Z,97033.57
2018-04-10T05:56:33.789Z,97038.73
2018-04-10T05:59:01.257Z,97041.63
2018-04-10T06:01:28.743Z,97050.97
2018-04-10T06:03:56.262Z,97054.62
2018-04-10T06:06:23.766Z,97052.77
2018-04-10T06:08:51.261Z,97048.41
2018-04-10T06:11:18.735Z,97044.95
2018-04-10T06:13:46.206Z,97045.31
2018-04-10T06:16:13.672Z,97038.53
2018-04-10T06:18:41.151Z,97042.43
2018-04-10T06:21:08.665Z,97045.63
2018-04-10T06:23:36.260Z,97045.73
2018-04-10T06:26:03.751Z,97052.19
2018-04-10T06:28:31.231Z,97042.67
2018-04-10T06:30:58.720Z,97049.00
2018-04-10T06:33:26.260Z,97052.41
2018-04-10T06:35:53.777Z,97052.41
2018-04-10T06:38:21.265Z,97052.44
2018-04-10T06:40:48.759Z,97054.03
2018-04-10T06:43:16.249Z,97053.45
2018-04-10T06:45:43.735Z,97054.99
2018-04-10T06:48:11.222Z,97059.28
2018-04-10T06:50:38.754Z,97057.23
2018-04-10T06:53:06.259Z,97054.05
2018-04-10T06:55:33.777Z,97048.89
2018-04-10T06:58:01.249Z,97048.44
2018-04-10T07:00:28.716Z,97054.27
2018-04-10T07:02:56.208Z,97056.21
2018-04-10T07:05:23.681Z,97050.42
2018-04-10T07:07:51.158Z,97044.67
2018-04-10T07:10:18.627Z,97046.85
2018-04-10T07:12:46.100Z,97052.91
2018-04-10T07:15:13.575Z,97048.53
2018-04-10T07:17:41.041Z,97048.79
2018-04-10T07:20:08.547Z,97042.19
2018-04-10T07:22:36.117Z,97043.34
2018-04-10T07:25:03.937Z,97045.04
2018-04-10T07:27:31.505Z,97048.92
2018-04-10T07:29:58.991Z,97044.63
2018-04-10T07:32:26.468Z,97048.69
2018-04-10T07:34:53.988Z,97042.05
2018-04-10T07:37:21.485Z,97044.09
2018-04-10T07:39:49.513Z,97039.19
2018-04-10T07:42:17.165Z,97034.02
2018-04-10T07:44:44.727Z,97036.52
2018-04-10T07:47:12.499Z,97033.25
2018-04-10T07:49:40.096Z,97033.91
2018-04-10T07:52:07.564Z,97031.50
2018-04-10T07:54:35.166Z,97037.77
2018-04-10T07:57:02.786Z,97028.36
2018-04-10T07:59:30.486Z,97040.95
2018-04-10T08:01:57.984Z,97032.88
2018-04-10T08:04:25.473Z,97037.72
2018-04-10T08:06:52.973Z,97032.48
2018-04-10T08:09:20.468Z,97031.77
2018-04-10T08:11:47.946Z,97033.14
2018-04-10T08:14:15.465Z,97024.20
2018-04-10T08:16:42.943Z,97026.08
2018-04-10T08:19:10.445Z,97027.63
2018-04-10T08:21:37.917Z,97031.11
2018-04-10T08:24:05.415Z,97024.95
2018-04-10T08:26:33.032Z,97018.48
2018-04-10T08:29:00.504Z,97015.95
2018-04-10T08:31:27.995Z,97007.84
2018-04-10T08:33:55.521Z,97004.61
2018-04-10T08:36:23.003Z,97005.80
2018-04-10T08:38:50.479Z,97007.31
2018-04-10T08:41:17.987Z,97002.45
2018-04-10T08:43:45.584Z,96997.88
2018-04-10T08:46:13.126Z,96999.22
2018-04-10T08:48:40.611Z,97001.64
2018-04-10T08:51:08.100Z,97007.83
2018-04-10T08:53:35.580Z,97011.05
2018-04-10T08:56:03.421Z,97016.64
2018-04-10T08:58:31.988Z,97016.89
2018-04-10T09:00:59.637Z,97019.92
2018-04-10T09:03:27.127Z,97020.81
2018-04-10T09:05:54.600Z,97015.97
2018-04-10T09:08:22.098Z,97016.50
2018-04-10T09:10:49.588Z,97027.64
2018-04-10T09:13:17.092Z,97019.22
2018-04-10T09:15:44.579Z,97026.41
2018-04-10T09:18:12.123Z,97020.53
2018-04-10T09:20:39.633Z,97024.82
2018-04-10T09:23:07.243Z,97021.31
2018-04-10T09:25:34.813Z,97023.03
2018-04-10T09:28:02.303Z,97019.95
2018-04-10T09:30:29.827Z,97015.51
2018-04-10T09:32:57.443Z,97008.71
2018-04-10T09:35:24.982Z,97009.39
2018-04-10T09:37:52.528Z,97005.20
2018-04-10T09:40:20.014Z,97006.61
2018-04-10T09:42:47.525Z,97004.98
2018-04-10T09:45:15.003Z,97011.06
2018-04-10T09:47:42.473Z,97008.84
2018-04-10T09:50:10.019Z,97009.38
2018-04-10T09:52:37.502Z,97012.16
2018-04-10T09:55:05.062Z,97011.17
2018-04-10T09:57:32.593Z,97004.25
2018-04-10T10:00:00.115Z,96999.55
2018-04-10T10:02:27.619Z,96994.23
2018-04-10T10:04:55.299Z,96992.27
2018-04-10T10:07:22.792Z,96982.91
2018-04-10T10:09:50.303Z,96973.88
2018-04-10T10:12:17.850Z,96969.43
2018-04-10T10:14:45.341Z,96957.03
2018-04-10T10:17:13.582Z,96958.45
2018-04-10T10:19:41.134Z,96961.88
2018-04-10T10:22:08.654Z,96970.04
2018-04-10T10:24:36.166Z,96961.04
2018-04-10T10:27:03.868Z,96959.27
2018-04-10T10:29:31.349Z,96958.14
2018-04-10T10:31:58.916Z,96955.84
2018-04-10T10:34:26.414Z,96952.91
2018-04-10T10:36:53.923Z,96962.53
2018-04-10T10:39:21.416Z,96965.63
2018-04-10T10:41:48.893Z,96961.34
2018-04-10T10:44:16.376Z,96967.51
2018-04-10T10:46:43.887Z,96968.88
2018-04-10T10:49:11.362Z,96966.48
2018-04-10T10:51:38.877Z,96966.28
2018-04-10T10:54:06.353Z,96969.93
2018-04-10T10:56:33.834Z,96969.92
2018-04-10T10:59:01.360Z,96969.59
2018-04-10T11:01:28.827Z,96969.60
2018-04-10T11:03:56.316Z,96964.52
2018-04-10T11:06:23.878Z,96962.89
2018-04-10T11:08:51.434Z,96963.72
2018-04-10T11:11:18.995Z,96959.85
2018-04-10T11:13:46.583Z,96950.66
2018-04-10T11:16:14.067Z,96945.44
2018-04-10T11:18:41.569Z,96938.98
2018-04-10T11:21:09.042Z,96935.67
2018-04-10T11:23:36.563Z,96941.84
2018-04-10T11:26:04.252Z,96929.62
2018-04-10T11:28:31.814Z,96924.97
2018-04-10T11:30:59.289Z,96926.22
2018-04-10T11:33:26.801Z,96916.90
2018-04-10T11:35:54.307Z,96914.06
2018-04-10T11:38:21.825Z,96905.28
2018-04-10T11:40:49.445Z,96905.50
2018-04-10T11:43:16.952Z,96898.00
2018-04-10T11:45:44.446Z,96900.92
2018-04-10T11:48:11.930Z,96889.91
2018-04-10T11:50:39.439Z,96885.17
2018-04-10T11:53:07.049Z,96892.22
2018-04-10T11:55:34.555Z,96881.63
2018-04-10T11:58:02.098Z,96875.17
2018-04-10T12:00:29.660Z,96867.61
2018-04-10T12:02:57.184Z,96882.31
2018-04-10T12:05:24.671Z,96873.80
2018-04-10T12:07:52.154Z,96876.76
2018-04-10T12:10:19.638Z,96874.45
2018-04-10T12:12:47.095Z,96864.28
2018-04-10T12:15:14.581Z,96857.99
2018-04-10T12:17:42.067Z,96865.56
2018-04-10T12:20:09.567Z,96866.83
2018-04-10T12:22:37.085Z,96861.39
2018-04-10T12:25:04.767Z,96860.87
2018-04-10T12:27:32.404Z,96853.32
2018-04-10T12:29:59.994Z,96855.34
2018-04-10T12:32:27.542Z,96853.98
2018-04-10T12:34:55.047Z,96857.09
2018-04-10T12:37:22.555Z,96866.03
2018-04-10T12:39:50.077Z,96864.48
2018-04-10T12:42:17.677Z,96857.40
2018-04-10T12:44:45.171Z,96854.63
2018-04-10T12:47:12.645Z,96858.78
2018-04-10T12:49:40.136Z,96855.21
2018-04-10T12:52:07.623Z,96854.14
2018-04-10T12:54:35.154Z,96845.84
2018-04-10T12:57:02.807Z,96852.79
2018-04-10T12:59:30.285Z,96844.13
2018-04-10T13:01:57.767Z,96834.50
2018-04-10T13:04:25.237Z,96823.89
2018-04-10T13:06:52.820Z,96821.99
2018-04-10T13:09:20.334Z,96822.62
2018-04-10T13:11:47.839Z,96821.30
2018-04-10T13:14:15.326Z,96825.31
2018-04-10T13:16:42.847Z,96827.97
2018-04-10T13:19:10.330Z,96822.99
2018-04-10T13:21:37.902Z,96827.05
2018-04-10T13:24:05.544Z,96826.09
2018-04-10T13:26:33.031Z,96824.61
2018-04-10T13:29:00.539Z,96820.67
2018-04-10T13:31:28.055Z,96824.33
2018-04-10T13:33:55.573Z,96831.91
2018-04-10T13:36:23.067Z,96833.44
2018-04-10T13:38:50.551Z,96842.47
2018-04-10T13:41:18.094Z,96833.08
2018-04-10T13:43:45.686Z,96832.75
2018-04-10T13:46:13.220Z,96831.59
2018-04-10T13:48:41.178Z,96842.06
2018-04-10T13:51:08.804Z,96835.34
2018-04-10T13:53:36.291Z,96835.44
2018-04-10T13:56:03.985Z,96837.50
2018-04-10T13:58:31.484Z,96833.48
2018-04-10T14:00:58.960Z,96833.92
2018-04-10T14:03:26.437Z,96831.91
2018-04-10T14:05:53.933Z,96823.97
2018-04-10T14:08:21.460Z,96824.02
2018-04-10T14:10:48.939Z,96832.02
2018-04-10T14:13:16.422Z,96828.16
2018-04-10T14:15:43.916Z,96829.92
2018-04-10T14:18:11.400Z,96830.14
2018-04-10T14:20:38.875Z,96827.89
2018-04-10T14:23:06.380Z,96828.74
2018-04-10T14:25:33.880Z,96820.11
2018-04-10T14:28:01.411Z,96822.34
2018-04-10T14:30:28.905Z,96819.03
2018-04-10T14:32:56.599Z,96821.31
2018-04-10T14:35:24.079Z,96816.79
2018-04-10T14:37:51.642Z,96823.95
2018-04-10T14:40:19.336Z,96822.23
2018-04-10T14:42:46.988Z,96816.66
2018-04-10T14:45:14.482Z,96817.84
2018-04-10T14:47:41.954Z,96823.45
2018-04-10T14:50:09.509Z,96825.27
2018-04-10T14:52:37.041Z,96819.27
2018-04-10T14:55:04.516Z,96820.85
2018-04-10T14:57:32.050Z,96818.64
2018-04-10T14:59:59.649Z,96828.00
2018-04-10T15:02:27.164Z,96829.31
2018-04-10T15:04:54.679Z,96835.00
2018-04-10T15:07:22.137Z,96830.48
2018-04-10T15:09:49.628Z,96828.78
2018-04-10T15:12:17.110Z,96835.44
2018-04-10T15:14:44.764Z,96843.97
2018-04-10T15:17:12.225Z,96866.35
2018-04-10T15:19:39.720Z,96874.61
2018-04-10T15:22:07.178Z,96894.46
2018-04-10T15:24:34.707Z,96918.06
2018-04-10T15:27:02.322Z,96916.48
2018-04-10T15:29:29.810Z,96924.20
2018-04-10T15:31:57.411Z,96938.70
2018-04-10T15:34:24.887Z,96959.23
2018-04-10T15:36:52.501Z,96964.73
2018-04-10T15:39:19.993Z,96965.71
2018-04-10T15:41:47.638Z,96971.96
2018-04-10T15:44:15.118Z,96964.45
2018-04-10T15:46:42.884Z,96955.86
2018-04-10T15:49:10.401Z,96976.95
2018-04-10T15:51:37.980Z,96959.09
2018-04-10T15:54:05.717Z,96975.14
2018-04-10T15:56:33.245Z,96972.65
2018-04-10T15:59:00.777Z,96990.37
2018-04-10T16:01:28.264Z,96986.08
2018-04-10T16:03:55.744Z,96992.38
2018-04-10T16:06:23.258Z,96985.94
2018-04-10T16:08:50.734Z,96986.09
2018-04-10T16:11:18.457Z,96987.21
2018-04-10T16:13:46.087Z,97003.45
2018-04-10T16:16:13.635Z,97030.70
2018-04-10T16:18:41.242Z,97045.80
2018-04-10T16:21:08.743Z,97049.84
2018-04-10T16:23:36.416Z,97086.42
2018-04-10T16:26:03.903Z,97092.06
2018-04-10T16:28:31.457Z,97100.62
2018-04-10T16:30:59.292Z,97104.11
2018-04-10T16:33:26.781Z,97102.80
2018-04-10T16:35:54.258Z,97118.42
2018-04-10T16:38:21.867Z,97132.78
2018-04-10T16:40:49.400Z,97152.05
2018-04-10T16:43:16.911Z,97172.56
2018-04-10T16:45:44.463Z,97193.30
2018-04-10T16:48:11.947Z,97202.80
2018-04-10T16:50:39.696Z,97231.70
2018-04-10T16:53:07.210Z,97227.53
2018-04-10T16:55:34.868Z,97233.94
2018-04-10T16:58:02.510Z,97243.03
2018-04-10T17:00:30.070Z,97225.44
2018-04-10T17:02:57.564Z,97174.59
2018-04-10T17:05:25.066Z,97161.41
2018-04-10T17:07:52.536Z,97162.41
2018-04-10T17:10:19.999Z,97142.81
2018-04-10T17:12:47.594Z,97137.29
2018-04-10T17:15:15.129Z,97132.08
2018-04-10T17:17:42.643Z,97133.13
2018-04-10T17:20:10.222Z,97140.45
2018-04-10T17:22:37.744Z,97149.39
2018-04-10T17:25:05.282Z,97148.85
2018-04-10T17:27:32.760Z,97154.30
2018-04-10T17:30:00.260Z,97152.18
2018-04-10T17:32:27.801Z,97159.53
2018-04-10T17:34:55.283Z,97163.36
2018-04-10T17:37:22.764Z,97151.52
2018-04-10T17:39:50.232Z,97156.06
2018-04-10T17:42:17.730Z,97171.77
2018-04-10T17:44:45.289Z,97170.75
2018-04-10T17:47:12.818Z,97186.54
2018-04-10T17:49:40.302Z,97220.80
2018-04-10T17:52:07.860Z,97251.06
2018-04-10T17:54:37.706Z,97257.77
2018-04-10T17:57:05.184Z,97266.97
2018-04-10T17:59:32.765Z,97273.66
2018-04-10T18:02:00.428Z,97279.82
2018-04-10T18:04:27.940Z,97280.41
2018-04-10T18:06:55.420Z,97294.84
2018-04-10T18:09:23.109Z,97310.65
2018-04-10T18:11:50.580Z,97313.70
2018-04-10T18:14:18.095Z,97308.28
2018-04-10T18:16:45.563Z,97304.59
2018-04-10T18:19:13.568Z,97309.04
2018-04-10T18:21:41.732Z,97314.75
2018-04-10T18:24:09.688Z,97317.27
2018-04-10T18:26:38.411Z,97320.65
2018-04-10T18:29:13.176Z,97322.62
2018-04-10T18:31:41.252Z,97315.95
2018-04-10T18:34:08.824Z,97318.47
2018-04-10T18:36:36.774Z,97320.31
2018-04-10T18:39:04.419Z,97319.92
2018-04-10T18:41:32.234Z,97334.96
2018-04-10T18:43:59.923Z,97343.98
2018-04-10T18:46:27.384Z,97346.92
2018-04-10T18:48:54.881Z,97352.14
2018-04-10T18:51:22.498Z,97338.25
2018-04-10T18:53:49.992Z,97342.66
2018-04-10T18:56:17.455Z,97366.11
2018-04-10T18:58:45.036Z,97382.45
2018-04-10T19:01:12.507Z,97384.26
2018-04-10T19:03:39.978Z,97391.21
2018-04-10T19:06:07.460Z,97387.00
2018-04-10T19:08:35.296Z,97373.22
2018-04-10T19:11:02.794Z,97380.04
2018-04-10T19:13:30.396Z,97398.67
2018-04-10T19:15:57.878Z,97409.78
2018-04-10T19:18:25.366Z,97412.59
2018-04-10T19:20:52.883Z,97400.39
2018-04-10T19:23:20.358Z,97394.86
2018-04-10T19:25:47.924Z,97404.77
2018-04-10T19:28:15.434Z,97391.28
2018-04-10T19:30:43.054Z,97372.96
2018-04-10T19:33:10.539Z,97378.02
2018-04-10T19:35:38.071Z,97375.14
2018-04-10T19:38:05.596Z,97369.31
2018-04-10T19:40:33.149Z,97361.18
2018-04-10T19:43:11.798Z,97365.34
2018-04-10T19:45:40.383Z,97371.27
2018-04-10T19:48:07.860Z,97368.92
2018-04-10T19:50:35.326Z,97363.91
2018-04-10T19:53:02.808Z,97353.75
2018-04-10T19:55:30.327Z,97340.96
2018-04-10T19:57:57.800Z,97337.80
2018-04-10T20:00:25.326Z,97332.92
2018-04-10T20:02:52.934Z,97314.48
2018-04-10T20:05:20.427Z,97320.31
2018-04-10T20:07:47.999Z,97332.92
2018-04-10T20:10:15.765Z,97356.52
2018-04-10T20:12:43.291Z,97373.09
2018-04-10T20:15:10.959Z,97390.32
2018-04-10T20:17:38.456Z,97394.58
2018-04-10T20:20:06.102Z,97379.27
2018-04-10T20:22:33.704Z,97365.77
2018-04-10T20:25:01.238Z,97379.88
2018-04-10T20:27:28.989Z,97370.91
2018-04-10T20:29:56.496Z,97349.25
2018-04-10T20:32:24.064Z,97344.14
2018-04-10T20:34:51.698Z,97354.89
2018-04-10T20:37:19.297Z,97353.42
2018-04-10T20:39:46.800Z,97358.19
2018-04-10T20:42:14.264Z,97357.53
2018-04-10T20:44:41.847Z,97355.20
2018-04-10T20:47:09.306Z,97345.64
2018-04-10T20:49:36.833Z,97352.48
2018-04-10T20:52:04.356Z,97353.07
2018-04-10T20:54:31.858Z,97359.38
2018-04-10T20:56:59.429Z,97360.96
2018-04-10T20:59:26.987Z,97356.59
2018-04-10T21:01:54.663Z,97357.98
2018-04-10T21:04:22.245Z,97347.14
2018-04-10T21:06:49.723Z,97347.31
2018-04-10T21:09:17.479Z,97344.06
2018-04-10T21:11:44.985Z,97344.55
2018-04-10T21:14:12.607Z,97343.85
2018-04-10T21:16:40.322Z,97343.22
2018-04-10T21:19:07.987Z,97341.70
2018-04-10T21:21:35.488Z,97342.77
2018-04-10T21:24:03.023Z,97352.92
2018-04-10T21:26:30.632Z,97352.72
2018-04-10T21:28:58.101Z,97362.63
2018-04-10T21:31:25.685Z,97360.68
2018-04-10T21:33:53.255Z,97358.36
2018-04-10T21:36:20.839Z,97359.59
2018-04-10T21:38:48.334Z,97363.53
2018-04-10T21:41:16.108Z,97371.02
2018-04-10T21:43:43.818Z,97366.94
2018-04-10T21:46:11.280Z,97370.04
2018-04-10T21:48:38.899Z,97370.12
2018-04-10T21:51:14.080Z,97369.95
2018-04-10T21:53:42.536Z,97369.41
2018-04-10T21:56:10.173Z,97363.80
2018-04-10T21:58:37.640Z,97365.03
2018-04-10T22:01:05.151Z,97366.81
2018-04-10T22:03:32.630Z,97368.22
2018-04-10T22:06:04.392Z,97368.22
2018-04-10T22:08:31.918Z,97367.41
2018-04-10T22:11:00.286Z,97365.89
2018-04-10T22:13:27.927Z,97365.97
2018-04-10T22:15:55.388Z,97367.20
2018-04-10T22:18:22.851Z,97379.41
2018-04-10T22:20:50.483Z,97379.05
2018-04-10T22:23:17.998Z,97386.45
2018-04-10T22:25:45.464Z,97396.95
2018-04-10T22:28:12.946Z,97397.33
2018-04-10T22:30:40.404Z,97393.25
2018-04-10T22:33:08.101Z,97399.56
2018-04-10T22:35:35.591Z,97393.52
2018-04-10T22:38:03.118Z,97397.90
2018-04-10T22:40:30.615Z,97390.41
2018-04-10T22:42:58.090Z,97397.47
2018-04-10T22:45:25.558Z,97395.09
2018-04-10T22:47:53.098Z,97387.54
2018-04-10T22:50:23.093Z,97398.17
2018-04-10T22:52:52.704Z,97402.35
2018-04-10T22:55:23.049Z,97404.86
2018-04-10T22:57:51.757Z,97401.42
2018-04-10T23:03:18.858Z,97400.10
2018-04-10T23:05:48.027Z,97400.14
2018-04-10T23:08:16.199Z,97401.16
2018-04-10T23:10:47.293Z,97397.37
2018-04-10T23:13:16.098Z,97393.16
2018-04-10T23:15:47.381Z,97393.74
2018-04-10T23:18:17.533Z,97391.65
2018-04-10T23:20:46.513Z,97393.94
2018-04-10T23:23:13.994Z,97394.36
2018-04-10T23:25:41.475Z,97396.77
2018-04-10T23:28:08.963Z,97398.20
2018-04-10T23:30:36.434Z,97393.59
2018-04-10T23:33:03.901Z,97392.40
2018-04-10T23:35:31.378Z,97390.03
2018-04-10T23:37:58.875Z,97396.23
2018-04-10T23:40:26.464Z,97400.56
2018-04-10T23:42:53.974Z,97397.73
2018-04-10T23:45:21.464Z,97403.19
2018-04-10T23:47:48.949Z,97403.04
2018-04-10T23:50:16.481Z,97405.39
2018-04-10T23:52:43.957Z,97406.32
2018-04-10T23:55:11.419Z,97409.06
2018-04-10T23:57:38.876Z,97406.66
